Time;durP1;ratioP1;P1;durP2;ratioP2;P2;SDS_P1;SDS_P2;PMS_P1;PMS_P2;Temp;Humidity;BMP_temperature;BMP_pressure;BME280_temperature;BME280_humidity;BME280_pressure;Samples;Min_cycle;Max_cycle;Signal;HPM_P1;HPM_P2
2023/10/12 00:01:59;;;;;;;14.23;3.83;;;13.20;99.90;;;;;;5052069;28;20418;-59
2023/10/12 00:04:35;;;;;;;13.02;3.67;;;13.30;99.90;;;;;;5051569;28;20063;-59
2023/10/12 00:07:09;;;;;;;10.85;3.28;;;13.30;99.90;;;;;;5051410;28;20048;-59
2023/10/12 00:09:35;;;;;;;17.03;4.50;;;13.20;99.90;;;;;;5051815;28;20107;-59
2023/10/12 00:12:07;;;;;;;15.40;3.20;;;13.30;99.90;;;;;;5051697;28;20842;-59
2023/10/12 00:14:34;;;;;;;17.17;3.65;;;13.20;99.90;;;;;;5050650;28;20045;-59
2023/10/12 00:17:00;;;;;;;14.30;3.13;;;13.30;99.90;;;;;;5052915;28;20045;-59
2023/10/12 00:19:27;;;;;;;14.15;4.70;;;13.30;99.90;;;;;;5052456;28;20044;-59
2023/10/12 00:21:59;;;;;;;13.77;2.88;;;13.30;99.90;;;;;;5050638;28;20398;-59
2023/10/12 00:24:25;;;;;;;13.90;2.72;;;13.30;99.90;;;;;;5051348;28;20080;-59
2023/10/12 00:26:51;;;;;;;14.60;3.13;;;13.30;99.90;;;;;;5051863;28;20064;-59
2023/10/12 00:29:18;;;;;;;11.20;3.00;;;13.20;99.90;;;;;;5052454;28;20049;-59
2023/10/12 00:31:46;;;;;;;13.77;3.35;;;13.20;99.90;;;;;;5051387;28;20037;-59
2023/10/12 00:34:14;;;;;;;12.80;3.47;;;13.30;99.90;;;;;;5051494;28;20037;-59
2023/10/12 00:36:41;;;;;;;10.30;2.78;;;13.20;99.90;;;;;;5052851;28;20056;-59
2023/10/12 00:39:10;;;;;;;17.75;4.40;;;13.30;99.90;;;;;;5060384;28;20116;-59
2023/10/12 00:41:45;;;;;;;13.93;3.33;;;13.20;99.90;;;;;;5050163;28;20102;-59
2023/10/12 00:44:18;;;;;;;13.40;2.90;;;13.20;99.90;;;;;;5050853;28;20120;-59
2023/10/12 00:49:22;;;;;;;9.05;2.78;;;13.10;99.90;;;;;;5050443;28;20049;-59
2023/10/12 00:51:53;;;;;;;12.07;2.40;;;13.10;99.90;;;;;;5051884;28;20266;-59
2023/10/12 00:54:41;;;;;;;9.55;2.28;;;13.10;99.90;;;;;;5050804;28;20498;-59
2023/10/12 00:57:09;;;;;;;9.15;2.08;;;13.00;99.90;;;;;;5050200;28;20062;-59
2023/10/12 00:59:39;;;;;;;13.95;2.30;;;13.00;99.90;;;;;;5050973;28;20056;-59
2023/10/12 01:02:12;;;;;;;10.25;2.42;;;13.00;99.90;;;;;;5051637;28;20403;-59
2023/10/12 01:04:41;;;;;;;9.32;2.00;;;12.90;99.90;;;;;;5067585;28;20146;-59
2023/10/12 01:07:07;;;;;;;7.38;2.20;;;12.90;99.90;;;;;;5070815;28;20121;-59
2023/10/12 01:09:39;;;;;;;10.82;2.55;;;12.90;99.90;;;;;;5071147;28;20040;-59
2023/10/12 01:12:13;;;;;;;10.50;2.58;;;12.90;99.90;;;;;;5070912;28;20055;-59
2023/10/12 01:14:43;;;;;;;7.75;2.08;;;12.90;99.90;;;;;;5071385;28;20044;-59
2023/10/12 01:17:17;;;;;;;7.18;1.88;;;12.90;99.90;;;;;;5071186;28;20389;-59
2023/10/12 01:19:46;;;;;;;10.35;2.33;;;12.80;99.90;;;;;;5070526;28;20519;-59
2023/10/12 01:22:13;;;;;;;11.02;2.10;;;12.80;99.90;;;;;;5069975;28;20040;-59
2023/10/12 01:27:27;;;;;;;8.35;2.25;;;12.80;99.90;;;;;;5050539;28;22421;-59
2023/10/12 01:29:54;;;;;;;8.77;2.15;;;12.80;99.90;;;;;;5052284;28;20090;-59
2023/10/12 01:35:02;;;;;;;7.38;1.50;;;12.80;99.90;;;;;;5072103;28;20049;-59
2023/10/12 01:37:28;;;;;;;6.88;1.98;;;12.70;99.90;;;;;;5057347;28;20071;-59
2023/10/12 01:45:19;;;;;;;8.90;1.98;;;12.70;99.90;;;;;;5073503;28;20059;-59
2023/10/12 01:47:54;;;;;;;11.38;2.22;;;12.70;99.90;;;;;;5073802;28;20045;-59
2023/10/12 01:50:20;;;;;;;10.18;2.25;;;12.70;99.90;;;;;;5064786;28;20398;-69
2023/10/12 01:52:47;;;;;;;10.95;2.60;;;12.60;99.90;;;;;;5053609;28;20056;-69
2023/10/12 01:55:18;;;;;;;8.60;2.00;;;12.70;99.90;;;;;;5054464;28;20611;-59
2023/10/12 01:57:53;;;;;;;7.30;1.67;;;12.60;99.90;;;;;;5053936;28;20109;-59
2023/10/12 02:00:25;;;;;;;8.48;2.10;;;12.50;99.90;;;;;;5053364;28;20052;-59
2023/10/12 02:03:00;;;;;;;6.95;1.83;;;12.60;99.90;;;;;;5054019;28;20059;-59
2023/10/12 02:05:29;;;;;;;8.02;2.10;;;12.50;99.90;;;;;;5053175;28;20051;-59
2023/10/12 02:07:56;;;;;;;7.88;1.60;;;12.50;99.90;;;;;;5055387;28;20029;-59
2023/10/12 02:10:25;;;;;;;8.15;1.52;;;12.50;99.90;;;;;;5055113;28;20363;-59
2023/10/12 02:12:54;;;;;;;8.48;2.70;;;12.40;99.90;;;;;;5053066;28;20103;-59
2023/10/12 02:15:22;;;;;;;7.22;2.00;;;12.50;99.90;;;;;;5061932;28;20479;-59
2023/10/12 02:17:51;;;;;;;10.40;2.35;;;12.50;99.90;;;;;;5073416;28;20048;-59
2023/10/12 02:20:18;;;;;;;7.10;2.00;;;12.40;99.90;;;;;;5072596;28;20041;-59
2023/10/12 02:22:48;;;;;;;11.55;2.95;;;12.40;99.90;;;;;;5065484;28;20132;-59
2023/10/12 02:25:26;;;;;;;7.20;1.98;;;12.40;99.90;;;;;;5053948;28;20103;-59
2023/10/12 02:27:56;;;;;;;10.13;2.15;;;12.30;99.90;;;;;;5053215;28;20041;-59
2023/10/12 02:30:28;;;;;;;10.30;2.70;;;12.30;99.90;;;;;;5073580;28;20119;-59
2023/10/12 02:33:00;;;;;;;10.18;1.80;;;12.30;99.90;;;;;;5073699;28;20048;-59
2023/10/12 02:35:36;;;;;;;11.63;2.85;;;12.30;99.90;;;;;;5072817;28;20131;-59
2023/10/12 02:38:09;;;;;;;6.63;1.70;;;12.30;99.90;;;;;;5074025;28;20048;-59
2023/10/12 02:40:35;;;;;;;9.23;2.65;;;12.30;99.90;;;;;;5072919;28;20167;-59
2023/10/12 02:43:03;;;;;;;9.63;2.10;;;12.40;99.90;;;;;;5072850;28;20529;-59
2023/10/12 02:45:29;;;;;;;4.10;1.50;;;12.30;99.90;;;;;;5068425;28;20049;-59
2023/10/12 02:47:58;;;;;;;6.75;1.73;;;12.30;99.90;;;;;;5069159;28;20049;-59
2023/10/12 02:50:28;;;;;;;7.45;1.90;;;12.20;99.90;;;;;;5052943;28;20057;-59
2023/10/12 02:52:54;;;;;;;7.60;1.90;;;12.30;99.90;;;;;;5053320;28;20044;-59
2023/10/12 02:57:56;;;;;;;8.80;2.10;;;12.30;99.90;;;;;;5086362;28;20052;-59
2023/10/12 03:00:35;;;;;;;7.45;2.22;;;12.20;99.90;;;;;;5052814;28;20052;-59
2023/10/12 03:03:21;;;;;;;8.20;2.28;;;12.20;99.90;;;;;;5052806;28;20357;-59
2023/10/12 03:05:47;;;;;;;12.38;2.40;;;12.20;99.90;;;;;;5036255;28;20045;-59
2023/10/12 03:08:14;;;;;;;7.97;2.53;;;12.20;99.90;;;;;;5054427;28;20102;-59
2023/10/12 03:11:00;;;;;;;9.65;2.63;;;12.20;99.90;;;;;;5051892;28;20048;-59
2023/10/12 03:13:33;;;;;;;10.98;2.30;;;12.10;99.90;;;;;;5052841;28;20040;-59
2023/10/12 03:16:08;;;;;;;9.52;2.60;;;12.20;99.90;;;;;;5052268;28;20048;-59
2023/10/12 03:18:34;;;;;;;7.78;2.30;;;12.20;99.90;;;;;;5054105;28;20037;-59
2023/10/12 03:21:04;;;;;;;6.30;1.80;;;12.20;99.90;;;;;;5052751;28;20672;-59
2023/10/12 03:23:33;;;;;;;6.53;1.67;;;12.10;99.90;;;;;;5035130;28;20123;-59
2023/10/12 03:26:04;;;;;;;12.90;2.10;;;12.10;99.90;;;;;;5052769;28;20037;-59
2023/10/12 03:28:30;;;;;;;8.68;3.13;;;12.10;99.90;;;;;;5052245;28;20045;-59
2023/10/12 03:33:55;;;;;;;9.70;2.40;;;12.10;99.90;;;;;;5043765;28;20056;-59
2023/10/12 03:36:23;;;;;;;12.20;2.70;;;12.10;99.90;;;;;;5053817;28;20112;-59
2023/10/12 03:39:13;;;;;;;8.82;2.72;;;12.10;99.90;;;;;;5034282;28;20094;-59
2023/10/12 03:47:15;;;;;;;6.70;1.75;;;12.10;99.90;;;;;;5072249;28;20055;-59
2023/10/12 03:49:57;;;;;;;9.25;1.70;;;12.10;99.90;;;;;;5045556;28;20490;-59
2023/10/12 03:52:52;;;;;;;12.02;2.15;;;12.10;99.90;;;;;;5050717;28;20053;-59
2023/10/12 03:55:25;;;;;;;9.43;2.10;;;12.00;99.90;;;;;;5051343;28;20049;-59
2023/10/12 03:58:00;;;;;;;8.27;2.22;;;12.00;99.90;;;;;;5051144;28;20106;-69
2023/10/12 04:00:32;;;;;;;10.75;2.15;;;12.00;99.90;;;;;;5051458;28;20049;-69
2023/10/12 04:02:58;;;;;;;9.85;2.03;;;12.00;99.90;;;;;;5053613;28;20045;-69
2023/10/12 04:05:44;;;;;;;12.02;3.70;;;12.00;99.90;;;;;;5051307;28;20036;-69
2023/10/12 04:08:39;;;;;;;4.78;1.60;;;12.00;99.90;;;;;;5034946;28;20085;-69
2023/10/12 04:11:47;;;;;;;7.18;1.50;;;12.00;99.90;;;;;;5050505;28;20049;-69
2023/10/12 04:14:20;;;;;;;10.73;2.40;;;11.90;99.90;;;;;;5053100;28;20087;-69
2023/10/12 04:16:47;;;;;;;9.60;1.85;;;11.90;99.90;;;;;;5051647;28;20563;-69
2023/10/12 04:19:29;;;;;;;5.57;1.77;;;11.80;99.90;;;;;;5051032;28;20447;-69
2023/10/12 04:22:05;;;;;;;7.70;2.05;;;11.80;99.90;;;;;;5051854;28;20086;-69
2023/10/12 04:24:42;;;;;;;11.02;2.20;;;11.80;99.90;;;;;;5054646;28;20040;-69
2023/10/12 04:27:38;;;;;;;7.57;2.65;;;11.80;99.90;;;;;;5071525;28;20527;-69
2023/10/12 04:30:18;;;;;;;8.10;1.77;;;11.70;99.90;;;;;;5071587;28;20036;-69
2023/10/12 04:38:08;;;;;;;7.18;2.03;;;11.70;99.90;;;;;;5005700;28;20152;-69
2023/10/12 04:40:43;;;;;;;6.10;1.70;;;11.60;99.90;;;;;;5048209;28;20045;-69
2023/10/12 04:43:09;;;;;;;;;;;11.60;99.90;;;;;;5051616;28;20179;-69
2023/10/12 04:48:21;;;;;;;6.78;2.20;;;11.50;99.90;;;;;;5083776;28;20088;-69
2023/10/12 04:50:59;;;;;;;6.30;2.00;;;11.50;99.90;;;;;;5050944;28;20391;-69
2023/10/12 04:53:35;;;;;;;10.02;1.92;;;11.50;99.90;;;;;;5061488;28;20043;-69
2023/10/12 04:56:09;;;;;;;7.07;1.50;;;11.50;99.90;;;;;;5070491;28;20509;-69
2023/10/12 04:58:36;;;;;;;9.60;2.33;;;11.50;99.90;;;;;;5071094;28;20058;-69
2023/10/12 05:01:19;;;;;;;9.48;2.28;;;11.40;99.90;;;;;;5071380;28;20049;-69
2023/10/12 05:04:07;;;;;;;5.80;1.85;;;11.50;99.90;;;;;;5070522;28;20418;-70
2023/10/12 05:06:34;;;;;;;6.07;1.80;;;11.40;99.90;;;;;;5070910;28;20102;-69
2023/10/12 05:09:04;;;;;;;7.93;1.95;;;11.40;99.90;;;;;;5048441;28;20490;-70
2023/10/12 05:11:30;;;;;;;7.75;1.98;;;11.40;99.90;;;;;;5050132;28;20045;-70
2023/10/12 05:13:56;;;;;;;4.95;1.65;;;11.40;99.90;;;;;;5052311;28;20060;-70
2023/10/12 05:16:26;;;;;;;4.13;1.60;;;11.30;99.90;;;;;;5049916;28;20041;-69
2023/10/12 05:18:52;;;;;;;5.40;1.52;;;11.40;99.90;;;;;;5050614;28;20041;-69
2023/10/12 05:21:18;;;;;;;8.15;2.38;;;11.30;99.90;;;;;;5051862;28;20041;-70
2023/10/12 05:23:43;;;;;;;8.32;2.13;;;11.40;99.90;;;;;;5033181;28;20044;-70
2023/10/12 05:26:09;;;;;;;5.07;1.60;;;11.30;99.90;;;;;;5033806;28;20048;-70
2023/10/12 05:28:43;;;;;;;8.50;2.35;;;11.30;99.90;;;;;;5050333;28;20417;-69
2023/10/12 05:36:12;;;;;;;9.55;1.95;;;11.20;99.90;;;;;;5084626;28;20444;-70
2023/10/12 05:39:10;;;;;;;10.95;2.22;;;11.20;99.90;;;;;;5049402;28;20053;-69
2023/10/12 05:41:35;;;;;;;9.02;1.77;;;11.20;99.90;;;;;;5051692;28;20095;-70
2023/10/12 05:44:08;;;;;;;7.47;2.10;;;11.10;99.90;;;;;;5049810;28;20041;-70
2023/10/12 05:46:38;;;;;;;6.63;2.60;;;11.10;99.90;;;;;;5050567;28;20402;-69
2023/10/12 05:49:14;;;;;;;10.18;3.00;;;11.00;99.90;;;;;;5050403;28;20045;-70
2023/10/12 05:51:44;;;;;;;8.20;3.15;;;11.00;99.90;;;;;;5032798;28;20053;-69
2023/10/12 05:54:10;;;;;;;8.85;2.30;;;11.00;99.90;;;;;;5050624;28;20105;-70
2023/10/12 05:56:36;;;;;;;10.88;3.20;;;10.90;99.90;;;;;;5049881;28;20039;-70
2023/10/12 05:59:09;;;;;;;8.02;2.25;;;10.90;99.90;;;;;;5049741;28;20036;-70
2023/10/12 06:01:37;;;;;;;4.43;1.75;;;10.90;99.90;;;;;;5050513;28;20174;-70
2023/10/12 06:04:05;;;;;;;8.18;2.38;;;10.90;99.90;;;;;;5050745;28;20053;-70
2023/10/12 06:06:35;;;;;;;7.57;2.28;;;10.80;99.90;;;;;;5049219;28;20048;-70
2023/10/12 06:09:11;;;;;;;9.07;2.50;;;10.80;99.90;;;;;;5070336;28;20091;-70
2023/10/12 06:11:44;;;;;;;7.65;2.47;;;10.80;99.90;;;;;;5069383;28;20044;-70
2023/10/12 06:14:14;;;;;;;6.65;3.22;;;10.70;99.90;;;;;;5071419;28;20370;-70
2023/10/12 06:16:45;;;;;;;6.97;2.67;;;10.80;99.90;;;;;;5066343;28;20049;-70
2023/10/12 06:19:26;;;;;;;8.07;3.13;;;10.70;99.90;;;;;;5059425;28;20119;-70
2023/10/12 06:21:53;;;;;;;7.18;2.33;;;10.70;99.90;;;;;;5057349;28;20044;-70
2023/10/12 06:24:33;;;;;;;7.05;3.53;;;10.70;99.90;;;;;;5073738;28;20127;-69
2023/10/12 06:27:01;;;;;;;11.70;4.35;;;10.60;99.90;;;;;;5073773;28;20052;-70
2023/10/12 06:29:28;;;;;;;7.25;2.83;;;10.60;99.90;;;;;;5073801;28;20049;-69
2023/10/12 06:31:54;;;;;;;7.53;3.40;;;10.60;99.90;;;;;;5061019;28;20567;-69
2023/10/12 06:34:24;;;;;;;7.07;3.30;;;10.60;99.90;;;;;;5069993;28;20124;-69
2023/10/12 06:36:57;;;;;;;7.85;3.65;;;10.60;99.90;;;;;;5053804;28;20127;-69
2023/10/12 06:46:57;;;;;;;8.98;3.90;;;10.50;99.90;;;;;;5073030;28;20044;-69
2023/10/12 06:49:23;;;;;;;10.07;3.75;;;10.60;99.90;;;;;;5064615;28;20043;-69
2023/10/12 06:51:54;;;;;;;8.10;3.38;;;10.60;99.90;;;;;;5066089;28;20585;-70
2023/10/12 06:54:33;;;;;;;9.30;3.45;;;10.60;99.90;;;;;;5054714;28;20053;-70
2023/10/12 06:59:53;;;;;;;11.38;4.65;;;10.70;99.90;;;;;;5049874;28;20044;-70
2023/10/12 07:02:24;;;;;;;7.82;3.50;;;10.70;99.90;;;;;;5072246;28;20481;-69
2023/10/12 07:04:59;;;;;;;14.18;4.10;;;10.80;99.90;;;;;;5052959;28;20492;-69
2023/10/12 07:07:41;;;;;;;6.43;2.40;;;10.90;99.90;;;;;;5056488;28;20030;-70
2023/10/12 07:10:13;;;;;;;6.90;2.33;;;11.00;99.90;;;;;;5073422;28;20072;-70
2023/10/12 07:12:48;;;;;;;10.10;2.35;;;11.00;99.90;;;;;;5060819;28;20462;-68
2023/10/12 07:15:26;;;;;;;7.47;2.00;;;11.10;99.90;;;;;;5051748;28;20045;-69
2023/10/12 07:17:53;;;;;;;7.05;1.75;;;11.10;99.90;;;;;;5050966;28;20045;-65
2023/10/12 07:20:43;;;;;;;6.13;1.70;;;11.20;99.90;;;;;;5057913;28;20389;-65
2023/10/12 07:25:45;;;;;;;8.60;1.83;;;11.50;99.90;;;;;;5053974;28;20048;-64
2023/10/12 07:31:41;;;;;;;10.82;1.77;;;11.60;99.90;;;;;;5057035;28;20043;-64
2023/10/12 07:41:53;;;;;;;10.35;2.60;;;12.00;99.90;;;;;;5071979;28;20498;-65
2023/10/12 07:47:40;;;;;;;9.18;2.72;;;12.00;99.90;;;;;;5017290;28;20061;-64
2023/10/12 07:50:09;;;;;;;7.25;1.92;;;12.00;99.90;;;;;;5049204;28;20048;-64
2023/10/12 07:55:12;;;;;;;10.73;2.90;;;12.10;99.90;;;;;;5054209;28;20488;-70
2023/10/12 07:57:38;;;;;;;11.43;2.63;;;12.10;99.90;;;;;;5060089;28;20493;-69
2023/10/12 08:06:07;;;;;;;10.20;2.33;;;12.20;99.90;;;;;;5048641;28;20543;-70
2023/10/12 08:24:09;;;;;;;7.72;2.22;;;12.50;99.90;;;;;;5075510;28;20042;-69
2023/10/12 08:31:48;;;;;;;11.07;2.45;;;12.60;99.90;;;;;;5083568;28;20128;-69
2023/10/12 08:39:50;;;;;;;8.43;2.10;;;12.70;99.90;;;;;;5070199;28;20132;-69
2023/10/12 08:44:51;;;;;;;7.75;2.58;;;12.80;99.90;;;;;;5056288;28;20060;-68
2023/10/12 08:47:44;;;;;;;6.50;1.95;;;12.90;99.90;;;;;;5027820;28;20494;-70
2023/10/12 08:52:50;;;;;;;6.43;2.08;;;12.90;99.90;;;;;;5040192;28;20805;-68
2023/10/12 08:55:24;;;;;;;6.82;1.98;;;13.00;99.90;;;;;;5063673;28;20111;-68
2023/10/12 08:58:16;;;;;;;9.20;2.45;;;13.00;99.90;;;;;;5033704;28;20132;-68
2023/10/12 09:01:31;;;;;;;6.25;1.90;;;13.00;99.90;;;;;;5056057;28;20477;-68
2023/10/12 09:03:37;;;;;;;7.53;2.25;;;13.10;99.90;;;;;;5031509;28;20147;-69
2023/10/12 09:06:13;;;;;;;10.43;2.03;;;13.10;99.90;;;;;;5051232;28;20489;-68
2023/10/12 09:08:46;;;;;;;9.05;1.73;;;13.20;99.90;;;;;;5049945;28;20525;-69
2023/10/12 09:13:38;;;;;;;9.48;2.15;;;13.30;99.90;;;;;;5055172;28;20119;-68
2023/10/12 09:16:11;;;;;;;6.18;1.75;;;13.40;99.90;;;;;;5070926;28;20044;-68
2023/10/12 09:18:49;;;;;;;6.35;2.03;;;13.50;99.90;;;;;;5070550;28;20052;-70
2023/10/12 09:23:58;;;;;;;6.15;2.00;;;13.60;99.90;;;;;;5070099;28;20498;-69
2023/10/12 09:26:32;;;;;;;9.63;1.73;;;13.60;99.90;;;;;;5062601;28;20486;-68
2023/10/12 09:35:11;;;;;;;7.95;1.58;;;13.60;99.90;;;;;;5061500;28;20095;-68
2023/10/12 09:37:51;;;;;;;5.15;1.67;;;13.60;99.90;;;;;;5060767;28;20072;-67
2023/10/12 09:40:39;;;;;;;8.10;2.20;;;13.60;99.90;;;;;;5061887;28;20056;-67
2023/10/12 09:43:12;;;;;;;6.85;2.05;;;13.60;99.90;;;;;;5041779;28;20033;-70
2023/10/12 09:45:44;;;;;;;7.47;1.75;;;13.70;99.90;;;;;;5063072;28;20111;-67
2023/10/12 09:48:18;;;;;;;5.90;1.73;;;13.70;99.90;;;;;;5053336;28;20533;-67
2023/10/12 09:50:47;;;;;;;9.93;2.10;;;13.70;99.90;;;;;;5064373;28;20156;-67
2023/10/12 09:53:25;;;;;;;5.90;1.67;;;13.70;99.90;;;;;;5067402;28;20045;-64
2023/10/12 09:56:10;;;;;;;9.57;1.90;;;13.70;99.90;;;;;;5052911;28;20037;-68
2023/10/12 09:58:51;;;;;;;7.95;2.00;;;13.70;99.90;;;;;;5053604;28;20041;-68
2023/10/12 10:02:27;;;;;;;11.45;2.22;;;13.70;99.90;;;;;;5054065;28;20104;-68
2023/10/12 10:07:17;;;;;;;6.97;2.30;;;13.70;99.90;;;;;;5088030;28;20044;-68
2023/10/12 10:09:54;;;;;;;8.18;1.50;;;13.90;99.90;;;;;;5053927;28;20132;-68
2023/10/12 10:12:22;;;;;;;8.43;1.67;;;13.90;99.90;;;;;;5033347;28;20041;-68
2023/10/12 10:14:57;;;;;;;9.05;2.60;;;14.00;99.90;;;;;;5034085;28;20049;-69
2023/10/12 10:17:37;;;;;;;9.77;1.85;;;14.00;99.90;;;;;;5067251;28;20044;-69
2023/10/12 10:22:58;;;;;;;14.15;3.03;;;14.10;99.90;;;;;;5034436;28;20053;-68
2023/10/12 10:25:28;;;;;;;6.45;1.75;;;14.20;99.90;;;;;;5033500;28;20073;-69
2023/10/12 10:27:56;;;;;;;8.85;1.73;;;14.30;99.90;;;;;;5033887;28;20049;-68
2023/10/12 10:30:25;;;;;;;8.52;2.00;;;14.30;99.90;;;;;;5034918;28;20034;-69
2023/10/12 10:33:17;;;;;;;5.60;1.33;;;14.30;99.90;;;;;;5066539;28;20041;-69
2023/10/12 10:36:09;;;;;;;9.38;1.60;;;14.40;99.90;;;;;;5067264;28;20076;-68
2023/10/12 10:38:39;;;;;;;7.57;1.63;;;14.50;99.90;;;;;;5052776;28;20053;-66
2023/10/12 10:41:17;;;;;;;8.02;1.70;;;14.60;99.90;;;;;;5056689;28;20516;-65
2023/10/12 10:43:44;;;;;;;7.30;2.00;;;14.50;99.90;;;;;;5053536;28;20063;-66
2023/10/12 10:46:10;;;;;;;6.22;1.30;;;14.50;99.90;;;;;;5052637;28;20131;-65
2023/10/12 10:48:38;;;;;;;8.25;2.33;;;14.50;99.90;;;;;;5053342;28;20036;-65
2023/10/12 10:51:11;;;;;;;12.25;2.30;;;14.40;99.90;;;;;;5054446;28;20057;-65
2023/10/12 10:53:40;;;;;;;9.43;2.22;;;14.40;99.90;;;;;;5053602;28;20430;-72
2023/10/12 10:56:15;;;;;;;6.47;1.88;;;14.40;99.90;;;;;;5053487;28;20565;-71
2023/10/12 10:58:41;;;;;;;6.45;1.58;;;14.40;99.90;;;;;;5054316;28;20041;-71
2023/10/12 11:01:12;;;;;;;5.57;1.17;;;14.50;99.90;;;;;;5052139;28;20482;-71
2023/10/12 11:03:39;;;;;;;8.95;1.60;;;14.50;99.90;;;;;;5085154;28;20502;-71
2023/10/12 11:06:21;;;;;;;9.98;2.10;;;14.60;99.90;;;;;;5052925;28;20486;-69
2023/10/12 11:09:07;;;;;;;5.65;1.33;;;14.70;99.90;;;;;;5052003;28;20068;-69
2023/10/12 11:11:44;;;;;;;7.75;1.60;;;14.80;99.90;;;;;;5052738;28;20425;-69
2023/10/12 11:14:12;;;;;;;10.90;2.00;;;14.80;99.90;;;;;;5053058;28;20142;-69
2023/10/12 11:16:38;;;;;;;6.15;1.65;;;14.80;99.90;;;;;;5053998;28;20112;-68
2023/10/12 11:19:09;;;;;;;10.20;2.15;;;14.90;99.90;;;;;;5086601;28;20049;-69
2023/10/12 11:21:35;;;;;;;6.63;1.88;;;14.80;99.90;;;;;;5053100;28;20428;-68
2023/10/12 11:24:09;;;;;;;5.65;1.73;;;14.80;99.90;;;;;;5052481;28;20052;-70
2023/10/12 11:26:55;;;;;;;10.57;2.38;;;14.80;99.90;;;;;;5052345;28;20040;-71
2023/10/12 11:29:24;;;;;;;8.15;1.77;;;14.90;99.90;;;;;;5051405;28;20076;-69
2023/10/12 11:32:10;;;;;;;6.63;2.10;;;14.90;99.90;;;;;;5052400;28;20494;-69
2023/10/12 11:34:53;;;;;;;6.18;2.15;;;14.90;99.90;;;;;;5052460;28;20037;-69
2023/10/12 11:37:19;;;;;;;8.18;1.98;;;14.90;99.90;;;;;;5051718;28;20049;-68
2023/10/12 11:39:46;;;;;;;6.95;1.80;;;15.00;99.90;;;;;;5053565;28;20045;-68
2023/10/12 11:42:13;;;;;;;8.65;1.92;;;15.00;99.90;;;;;;5051342;28;20087;-68
2023/10/12 11:44:43;;;;;;;7.40;1.50;;;15.10;99.90;;;;;;5053249;28;20083;-70
2023/10/12 11:47:10;;;;;;;7.90;1.75;;;15.10;99.90;;;;;;5052144;28;20056;-70
2023/10/12 11:49:57;;;;;;;9.05;2.10;;;15.20;99.90;;;;;;5052407;28;20076;-69
2023/10/12 11:52:30;;;;;;;7.93;1.45;;;15.20;99.90;;;;;;5051925;28;20052;-68
2023/10/12 11:55:06;;;;;;;8.55;1.85;;;15.20;99.90;;;;;;5052376;28;20107;-68
2023/10/12 11:57:35;;;;;;;8.77;2.20;;;15.20;99.90;;;;;;5067672;28;20048;-68
2023/10/12 12:00:20;;;;;;;8.80;2.00;;;15.20;99.90;;;;;;5052160;28;20125;-71
2023/10/12 12:02:56;;;;;;;;;;;15.10;99.90;;;;;;5052415;28;20044;-71
2023/10/12 12:05:23;;;;;;;6.43;1.42;;;15.10;99.90;;;;;;5051273;28;19923;-70
2023/10/12 12:07:53;;;;;;;8.18;1.65;;;15.00;99.90;;;;;;5051743;28;20036;-69
2023/10/12 12:10:26;;;;;;;7.82;1.85;;;15.10;99.90;;;;;;5051597;28;21262;-70
2023/10/12 12:12:52;;;;;;;5.20;1.60;;;15.10;99.90;;;;;;5083986;28;20052;-70
2023/10/12 12:15:19;;;;;;;6.80;1.67;;;15.10;99.90;;;;;;5053139;28;20046;-61
2023/10/12 12:17:46;;;;;;;6.93;1.88;;;15.20;99.90;;;;;;5052036;28;20069;-60
2023/10/12 12:20:21;;;;;;;10.52;2.13;;;15.10;99.90;;;;;;5051899;28;20059;-60
2023/10/12 12:22:47;;;;;;;6.65;1.60;;;15.20;99.90;;;;;;5051867;28;20127;-60
2023/10/12 12:25:20;;;;;;;5.72;1.65;;;15.10;99.90;;;;;;5051751;28;20052;-60
2023/10/12 12:27:48;;;;;;;7.00;1.73;;;15.20;99.90;;;;;;5051118;28;20037;-60
2023/10/12 12:30:30;;;;;;;9.43;2.00;;;15.20;99.90;;;;;;5055410;28;20041;-60
2023/10/12 12:33:00;;;;;;;6.55;2.03;;;15.20;99.90;;;;;;5051071;28;20049;-60
2023/10/12 12:35:28;;;;;;;9.85;2.13;;;15.20;99.90;;;;;;5055089;28;20032;-60
2023/10/12 12:38:05;;;;;;;8.98;1.60;;;15.20;99.90;;;;;;5040653;28;20064;-61
2023/10/12 12:40:38;;;;;;;11.00;2.20;;;15.30;99.90;;;;;;5051698;28;20547;-60
2023/10/12 12:43:09;;;;;;;8.52;2.10;;;15.30;99.90;;;;;;5056861;28;20389;-60
2023/10/12 12:45:35;;;;;;;9.82;2.65;;;15.20;99.90;;;;;;5064682;28;20402;-60
2023/10/12 12:48:04;;;;;;;5.60;1.60;;;15.20;99.90;;;;;;5038237;28;20116;-61
2023/10/12 12:50:30;;;;;;;6.60;2.17;;;15.20;99.90;;;;;;5050554;28;20053;-61
2023/10/12 12:52:57;;;;;;;5.00;1.55;;;15.20;99.90;;;;;;5050470;28;20041;-60
2023/10/12 12:55:28;;;;;;;9.40;2.38;;;15.20;99.90;;;;;;5050987;28;20088;-60
2023/10/12 12:57:58;;;;;;;11.32;2.17;;;15.20;99.90;;;;;;5051191;28;20045;-59
2023/10/12 13:00:25;;;;;;;6.90;1.40;;;15.20;99.90;;;;;;5095601;28;20037;-60
2023/10/12 13:02:50;;;;;;;8.35;2.10;;;15.20;99.90;;;;;;5061285;28;20037;-60
2023/10/12 13:05:16;;;;;;;6.22;1.60;;;15.20;99.90;;;;;;5037850;28;20075;-60
2023/10/12 13:07:45;;;;;;;7.95;1.52;;;15.10;99.90;;;;;;5030329;28;20040;-62
2023/10/12 13:10:11;;;;;;;10.25;2.05;;;15.10;99.90;;;;;;5050012;28;20052;-62
2023/10/12 13:12:43;;;;;;;10.00;2.08;;;15.00;99.90;;;;;;5050004;28;20041;-60
2023/10/12 13:15:10;;;;;;;7.72;1.95;;;15.00;99.90;;;;;;5049638;28;20052;-60
2023/10/12 13:17:37;;;;;;;5.72;1.90;;;15.00;99.90;;;;;;5061709;28;20056;-60
2023/10/12 13:20:04;;;;;;;7.00;1.33;;;15.00;99.90;;;;;;5069152;28;20074;-60
2023/10/12 13:22:30;;;;;;;10.50;1.85;;;15.00;99.90;;;;;;5086051;28;20105;-61
2023/10/12 13:24:58;;;;;;;9.80;1.83;;;15.00;99.90;;;;;;5058750;28;20540;-59
2023/10/12 13:27:28;;;;;;;7.90;2.42;;;15.00;99.90;;;;;;5070347;28;20048;-59
2023/10/12 13:30:00;;;;;;;9.90;2.33;;;15.00;99.90;;;;;;5068754;28;20086;-60
2023/10/12 13:32:26;;;;;;;6.80;1.67;;;15.10;99.90;;;;;;5067520;28;20040;-59
2023/10/12 13:34:57;;;;;;;5.88;1.52;;;15.10;99.90;;;;;;5060687;28;20587;-60
2023/10/12 13:37:30;;;;;;;9.55;1.45;;;15.10;99.90;;;;;;5051032;28;20091;-60
2023/10/12 13:39:57;;;;;;;7.10;2.08;;;15.00;99.90;;;;;;5049103;28;20051;-59
2023/10/12 13:42:23;;;;;;;8.43;1.60;;;15.00;99.90;;;;;;5048421;28;20044;-60
2023/10/12 13:45:01;;;;;;;8.40;1.95;;;15.00;99.90;;;;;;5062161;28;20048;-60
2023/10/12 13:47:31;;;;;;;6.63;1.60;;;15.00;99.90;;;;;;5054044;28;20040;-60
2023/10/12 13:49:57;;;;;;;7.45;1.67;;;14.90;99.90;;;;;;5049774;28;20370;-60
2023/10/12 13:52:23;;;;;;;3.78;1.48;;;14.90;99.90;;;;;;5062956;28;20102;-60
2023/10/12 13:54:52;;;;;;;9.82;2.53;;;14.90;99.90;;;;;;5047998;28;20033;-59
2023/10/12 13:57:17;;;;;;;7.38;1.75;;;14.90;99.90;;;;;;5057277;28;20077;-60
2023/10/12 13:59:47;;;;;;;6.13;1.77;;;14.80;99.90;;;;;;5048058;28;20083;-59
2023/10/12 14:02:13;;;;;;;8.50;2.00;;;14.80;99.90;;;;;;5053189;28;20516;-60
2023/10/12 14:04:40;;;;;;;5.47;1.63;;;14.80;99.90;;;;;;5031248;28;20044;-60
2023/10/12 14:07:07;;;;;;;7.95;1.98;;;14.80;99.90;;;;;;5049676;28;20045;-59
2023/10/12 14:09:33;;;;;;;6.05;1.67;;;14.70;99.90;;;;;;5032187;28;20045;-60
2023/10/12 14:11:59;;;;;;;6.55;2.05;;;14.70;99.90;;;;;;5062742;28;20379;-60
2023/10/12 14:14:36;;;;;;;6.00;1.63;;;14.80;99.90;;;;;;5066786;28;20079;-59
2023/10/12 14:17:04;;;;;;;8.50;1.92;;;14.70;99.90;;;;;;5066818;28;20789;-60
2023/10/12 14:19:30;;;;;;;8.02;2.00;;;14.80;99.90;;;;;;5051310;28;20088;-60
2023/10/12 14:21:58;;;;;;;7.55;1.92;;;14.70;99.90;;;;;;5047466;28;20627;-60
2023/10/12 14:24:24;;;;;;;7.57;1.73;;;14.70;99.90;;;;;;5051318;28;20047;-62
2023/10/12 14:26:51;;;;;;;12.35;2.35;;;14.60;99.90;;;;;;5050384;28;20041;-62
2023/10/12 14:29:18;;;;;;;13.05;2.97;;;14.60;99.90;;;;;;5047073;28;20102;-62
2023/10/12 14:31:45;;;;;;;6.88;1.58;;;14.60;99.90;;;;;;5047770;28;20057;-62
2023/10/12 14:34:16;;;;;;;9.68;2.67;;;14.50;99.90;;;;;;5055011;28;20036;-62
2023/10/12 14:36:44;;;;;;;8.10;2.15;;;14.50;99.90;;;;;;5049277;28;20542;-62
2023/10/12 14:39:22;;;;;;;8.43;1.80;;;14.40;99.90;;;;;;5065344;28;20063;-62
2023/10/12 14:41:48;;;;;;;5.63;1.90;;;14.40;99.90;;;;;;5058518;28;20128;-61
2023/10/12 14:44:16;;;;;;;8.68;1.83;;;14.40;99.90;;;;;;5045103;28;20493;-62
2023/10/12 14:46:44;;;;;;;6.63;1.98;;;14.40;99.90;;;;;;5052084;28;20036;-62
2023/10/12 14:49:11;;;;;;;7.07;1.90;;;14.30;99.90;;;;;;5050241;28;20137;-62
2023/10/12 14:51:37;;;;;;;9.00;2.90;;;14.30;99.90;;;;;;5052179;28;20061;-62
2023/10/12 14:54:03;;;;;;;7.47;2.78;;;14.30;99.90;;;;;;5060302;28;20055;-62
2023/10/12 14:56:30;;;;;;;6.55;2.40;;;14.20;99.90;;;;;;5050156;28;20072;-63
2023/10/12 14:58:58;;;;;;;9.95;2.40;;;14.10;99.90;;;;;;5049041;28;20044;-63
2023/10/12 15:01:32;;;;;;;9.15;2.20;;;14.00;99.90;;;;;;5071636;28;20127;-63
2023/10/12 15:03:58;;;;;;;7.57;2.03;;;13.90;99.90;;;;;;5058591;28;20508;-63
2023/10/12 15:06:23;;;;;;;8.15;1.73;;;13.90;99.90;;;;;;5057718;28;20049;-63
2023/10/12 15:08:52;;;;;;;6.95;2.25;;;13.80;99.90;;;;;;5055342;28;20048;-63
2023/10/12 15:11:18;;;;;;;6.53;1.95;;;13.80;99.90;;;;;;5053613;28;20069;-63